Time;durP1;ratioP1;P1;durP2;ratioP2;P2;SDS_P1;SDS_P2;PMS_P1;PMS_P2;Temp;Humidity;BMP_temperature;BMP_pressure;BME280_temperature;BME280_humidity;BME280_pressure;Samples;Min_cycle;Max_cycle;Signal;HPM_P1;HPM_P2
2023/12/28 00:01:14;;;;;;;11.00;4.22;;;8.10;99.90;;;;;;5073013;28;20044;-61
2023/12/28 00:03:41;;;;;;;8.50;4.18;;;9.80;99.90;;;;;;5072882;28;20052;-61
2023/12/28 00:06:06;;;;;;;9.73;4.07;;;9.60;99.90;;;;;;5073091;28;20048;-60
2023/12/28 00:08:32;;;;;;;10.15;4.47;;;9.40;99.90;;;;;;5071406;28;20106;-60
2023/12/28 00:10:58;;;;;;;10.95;4.05;;;8.10;99.90;;;;;;5072751;28;20036;-60
2023/12/28 00:13:24;;;;;;;11.18;4.55;;;8.80;99.90;;;;;;5072861;28;20415;-60
2023/12/28 00:15:49;;;;;;;7.13;3.78;;;9.60;99.90;;;;;;5072606;28;20051;-61
2023/12/28 00:18:15;;;;;;;7.65;3.58;;;9.10;99.90;;;;;;5071276;28;20048;-60
2023/12/28 00:20:41;;;;;;;7.85;3.88;;;9.00;99.90;;;;;;5072624;28;20051;-60
2023/12/28 00:23:06;;;;;;;7.85;4.30;;;8.50;99.90;;;;;;5072757;28;20040;-61
2023/12/28 00:25:32;;;;;;;9.93;3.65;;;9.10;99.90;;;;;;5072468;28;20045;-60
2023/12/28 00:27:58;;;;;;;9.00;3.92;;;9.70;99.90;;;;;;5072409;28;20047;-61
2023/12/28 00:30:23;;;;;;;9.32;3.90;;;8.60;99.90;;;;;;5072454;28;20043;-61
2023/12/28 00:32:49;;;;;;;9.98;4.22;;;9.70;99.90;;;;;;5072427;28;20055;-61
2023/12/28 00:35:15;;;;;;;8.35;3.70;;;8.30;99.90;;;;;;5072575;28;20039;-60
2023/12/28 00:37:40;;;;;;;9.20;3.35;;;8.30;99.90;;;;;;5072534;28;20044;-61
2023/12/28 00:40:06;;;;;;;9.95;3.58;;;9.20;99.90;;;;;;5071093;28;20044;-61
2023/12/28 00:42:32;;;;;;;9.50;3.90;;;9.60;99.90;;;;;;5072316;28;20051;-61
2023/12/28 00:44:59;;;;;;;9.30;3.60;;;9.70;99.90;;;;;;5072483;28;20040;-60
2023/12/28 00:47:25;;;;;;;9.60;3.72;;;8.30;99.90;;;;;;5070855;28;20044;-61
2023/12/28 00:49:50;;;;;;;8.45;3.55;;;8.60;99.90;;;;;;5071982;28;20408;-61
2023/12/28 00:52:16;;;;;;;10.40;3.50;;;8.90;99.90;;;;;;5072356;28;20079;-59
2023/12/28 00:54:42;;;;;;;10.95;3.35;;;10.10;99.90;;;;;;5071044;28;20040;-60
2023/12/28 00:57:07;;;;;;;12.00;3.58;;;10.00;99.90;;;;;;5070920;28;20115;-60
2023/12/28 00:59:33;;;;;;;8.93;3.67;;;9.70;99.90;;;;;;5072260;28;20087;-60
2023/12/28 01:01:59;;;;;;;10.85;3.33;;;8.50;99.90;;;;;;5072094;28;20033;-60
2023/12/28 01:04:24;;;;;;;11.95;2.88;;;8.60;99.90;;;;;;5070687;28;20354;-60
2023/12/28 01:06:50;;;;;;;14.13;2.83;;;10.20;99.90;;;;;;5071512;28;20045;-60
2023/12/28 01:09:16;;;;;;;9.95;3.47;;;10.30;99.90;;;;;;5072103;28;20094;-60
2023/12/28 01:11:42;;;;;;;11.57;3.30;;;8.60;99.90;;;;;;5072210;28;20048;-61
2023/12/28 01:14:07;;;;;;;13.82;3.33;;;10.00;99.90;;;;;;5072198;28;20469;-60
2023/12/28 01:16:33;;;;;;;15.07;3.60;;;8.50;99.90;;;;;;5071932;28;20033;-60
2023/12/28 01:18:59;;;;;;;18.15;3.50;;;8.60;99.90;;;;;;5070761;28;20501;-60
2023/12/28 01:21:25;;;;;;;13.80;2.92;;;9.60;99.90;;;;;;5071886;28;20044;-61
2023/12/28 01:23:54;;;;;;;16.25;3.42;;;8.50;99.90;;;;;;5072127;28;20105;-60
2023/12/28 01:26:20;;;;;;;15.13;3.65;;;9.60;99.90;;;;;;5071841;28;20051;-60
2023/12/28 01:28:46;;;;;;;17.85;3.25;;;10.10;99.90;;;;;;5071953;28;20041;-60
2023/12/28 01:31:11;;;;;;;20.13;3.75;;;9.70;99.90;;;;;;5071916;28;20443;-60
2023/12/28 01:33:37;;;;;;;18.73;5.05;;;9.90;99.90;;;;;;5071715;28;20377;-60
2023/12/28 01:36:03;;;;;;;14.10;3.53;;;8.20;99.90;;;;;;5071996;28;20036;-61
2023/12/28 01:38:28;;;;;;;16.10;3.10;;;8.40;99.90;;;;;;5071731;28;20048;-60
2023/12/28 01:40:54;;;;;;;15.93;3.00;;;9.10;99.90;;;;;;5071929;28;20083;-60
2023/12/28 01:43:20;;;;;;;17.60;3.10;;;9.10;99.90;;;;;;5071573;28;20041;-60
2023/12/28 01:45:46;;;;;;;20.00;4.32;;;9.10;99.90;;;;;;5071515;28;20041;-60
2023/12/28 01:48:13;;;;;;;14.23;3.75;;;8.80;99.90;;;;;;5071598;28;20060;-60
2023/12/28 01:50:39;;;;;;;13.35;3.13;;;9.80;99.90;;;;;;5071560;28;20474;-60
2023/12/28 01:53:06;;;;;;;12.55;2.75;;;8.20;99.90;;;;;;5071587;28;20086;-60
2023/12/28 01:55:33;;;;;;;11.43;3.20;;;8.20;99.90;;;;;;5070600;28;20123;-60
2023/12/28 01:57:59;;;;;;;13.75;4.13;;;8.70;99.90;;;;;;5071621;28;20427;-60
2023/12/28 02:00:25;;;;;;;13.45;2.97;;;9.60;99.90;;;;;;5071428;28;20041;-60
2023/12/28 02:02:51;;;;;;;19.25;3.85;;;9.80;99.90;;;;;;5071778;28;20044;-60
2023/12/28 02:05:17;;;;;;;17.00;3.28;;;9.80;99.90;;;;;;5071466;28;20550;-60
2023/12/28 02:07:43;;;;;;;11.88;3.13;;;9.30;99.90;;;;;;5071678;28;20048;-60
2023/12/28 02:10:09;;;;;;;17.42;3.30;;;7.90;99.90;;;;;;5071498;28;20404;-61
2023/12/28 02:12:35;;;;;;;13.20;3.47;;;9.70;99.90;;;;;;5071349;28;20385;-60
2023/12/28 02:15:01;;;;;;;21.77;3.30;;;9.60;99.90;;;;;;5071495;28;20036;-60
2023/12/28 02:17:49;;;;;;;16.92;4.22;;;10.10;99.90;;;;;;5071713;28;20036;-61
2023/12/28 02:20:15;;;;;;;17.40;3.17;;;8.30;99.90;;;;;;5074826;28;20040;-61
2023/12/28 02:22:41;;;;;;;14.63;3.58;;;10.00;99.90;;;;;;5074867;28;20044;-60
2023/12/28 02:25:08;;;;;;;14.82;2.95;;;8.90;99.90;;;;;;5074953;28;20115;-61
2023/12/28 02:27:47;;;;;;;18.33;3.88;;;9.90;99.90;;;;;;5074751;28;20044;-60
2023/12/28 02:30:16;;;;;;;15.55;3.17;;;8.20;99.90;;;;;;5074875;28;20040;-60
2023/12/28 02:33:15;;;;;;;18.40;4.00;;;8.30;99.90;;;;;;5074935;28;20036;-61
2023/12/28 02:35:50;;;;;;;16.90;2.78;;;7.90;99.90;;;;;;5074569;28;20477;-60
2023/12/28 02:38:17;;;;;;;17.00;3.70;;;8.30;99.90;;;;;;5074564;28;20139;-61
2023/12/28 02:40:44;;;;;;;14.63;3.38;;;9.60;99.90;;;;;;5074598;28;20044;-60
2023/12/28 02:43:10;;;;;;;14.93;3.10;;;9.10;99.90;;;;;;5074515;28;20142;-60
2023/12/28 02:45:37;;;;;;;17.55;4.10;;;7.90;99.90;;;;;;5074869;28;20041;-61
2023/12/28 02:48:03;;;;;;;16.13;3.00;;;9.50;99.90;;;;;;5074140;28;20109;-61
2023/12/28 02:50:32;;;;;;;15.32;4.03;;;9.50;99.90;;;;;;5074387;28;20503;-60
2023/12/28 02:52:58;;;;;;;12.00;3.20;;;9.70;99.90;;;;;;5074322;28;20115;-61
2023/12/28 02:55:24;;;;;;;13.15;3.15;;;9.70;99.90;;;;;;5074648;28;20121;-61
2023/12/28 02:57:51;;;;;;;12.27;3.38;;;8.70;99.90;;;;;;5074322;28;20079;-60
2023/12/28 03:00:17;;;;;;;13.90;4.03;;;8.10;99.90;;;;;;5074262;28;20044;-60
2023/12/28 03:02:43;;;;;;;10.60;3.30;;;8.20;99.90;;;;;;5074254;28;20051;-60
2023/12/28 03:05:08;;;;;;;15.52;3.08;;;7.90;99.90;;;;;;5073969;28;20111;-60
2023/12/28 03:07:35;;;;;;;11.20;3.00;;;8.20;99.90;;;;;;5074347;28;20552;-60
2023/12/28 03:10:01;;;;;;;10.52;3.25;;;9.90;99.90;;;;;;5074082;28;20047;-61
2023/12/28 03:12:28;;;;;;;9.43;3.03;;;8.80;99.90;;;;;;5074264;28;20131;-61
2023/12/28 03:14:53;;;;;;;12.23;3.17;;;8.10;99.90;;;;;;5072936;28;20047;-61
2023/12/28 03:17:19;;;;;;;12.23;3.35;;;10.10;99.90;;;;;;5073875;28;20037;-58
2023/12/28 03:19:45;;;;;;;12.50;3.13;;;8.50;99.90;;;;;;5074144;28;20075;-60
2023/12/28 03:22:11;;;;;;;15.15;3.42;;;10.20;99.90;;;;;;5074044;28;20044;-61
2023/12/28 03:24:37;;;;;;;14.05;4.72;;;9.20;99.90;;;;;;5072738;28;20043;-60
2023/12/28 03:27:06;;;;;;;13.50;2.85;;;10.40;99.90;;;;;;5073893;28;20048;-60
2023/12/28 03:29:32;;;;;;;14.80;2.95;;;9.30;99.90;;;;;;5073185;28;20095;-60
2023/12/28 03:31:58;;;;;;;13.30;3.42;;;9.50;99.90;;;;;;5073715;28;20075;-60
2023/12/28 03:34:26;;;;;;;11.02;2.50;;;10.20;99.90;;;;;;5073776;28;20098;-60
2023/12/28 03:36:52;;;;;;;12.02;3.42;;;9.90;99.90;;;;;;5073632;28;20059;-60
2023/12/28 03:39:18;;;;;;;14.40;2.65;;;9.70;99.90;;;;;;5073598;28;20041;-60
2023/12/28 03:41:43;;;;;;;11.68;3.00;;;9.40;99.90;;;;;;5073722;28;20101;-61
2023/12/28 03:44:09;;;;;;;12.60;3.42;;;10.50;99.90;;;;;;5073470;28;20032;-60
2023/12/28 03:46:35;;;;;;;12.27;3.03;;;9.70;99.90;;;;;;5073263;28;20052;-61
2023/12/28 03:49:01;;;;;;;13.45;2.90;;;8.40;99.90;;;;;;5072938;28;20056;-61
2023/12/28 03:51:26;;;;;;;13.68;3.15;;;9.00;99.90;;;;;;5073441;28;20389;-60
2023/12/28 03:53:52;;;;;;;13.35;3.55;;;9.00;99.90;;;;;;5073266;28;20045;-61
2023/12/28 03:56:20;;;;;;;11.32;3.05;;;10.40;99.90;;;;;;5073513;28;20032;-61
2023/12/28 03:58:46;;;;;;;14.48;2.95;;;10.40;99.90;;;;;;5071864;28;20044;-61
2023/12/28 04:01:11;;;;;;;14.63;3.05;;;9.30;99.90;;;;;;5073025;28;20044;-61
2023/12/28 04:03:37;;;;;;;13.05;3.28;;;8.90;99.90;;;;;;5073313;28;20044;-61
2023/12/28 04:06:03;;;;;;;14.70;4.18;;;8.80;99.90;;;;;;5073130;28;20590;-60
2023/12/28 04:08:28;;;;;;;14.43;4.60;;;9.00;99.90;;;;;;5073173;28;20040;-61
2023/12/28 04:10:55;;;;;;;11.73;3.22;;;8.90;99.90;;;;;;5073011;28;20049;-60
2023/12/28 04:13:21;;;;;;;10.70;2.70;;;9.60;99.90;;;;;;5072916;28;20457;-61
2023/12/28 04:15:46;;;;;;;13.70;2.97;;;10.50;99.90;;;;;;5072741;28;20037;-61
2023/12/28 04:18:12;;;;;;;12.27;3.22;;;10.30;99.90;;;;;;5072707;28;20408;-60
2023/12/28 04:20:37;;;;;;;11.05;4.38;;;10.50;99.90;;;;;;5072883;28;20052;-61
2023/12/28 04:23:03;;;;;;;12.77;2.60;;;10.50;99.90;;;;;;5072601;28;20040;-60
2023/12/28 04:25:29;;;;;;;16.38;4.28;;;9.00;99.90;;;;;;5072907;28;20052;-60
2023/12/28 04:27:54;;;;;;;9.40;2.58;;;10.10;99.90;;;;;;5072625;28;20110;-60
2023/12/28 04:30:20;;;;;;;12.85;3.55;;;9.10;99.90;;;;;;5072498;28;20044;-61
2023/12/28 04:32:46;;;;;;;18.70;4.13;;;10.40;99.90;;;;;;5072527;28;20043;-60
2023/12/28 04:35:11;;;;;;;16.42;3.10;;;9.40;99.90;;;;;;5072531;28;20095;-60
2023/12/28 04:37:37;;;;;;;14.73;3.30;;;9.40;99.90;;;;;;5072539;28;20032;-61
2023/12/28 04:40:03;;;;;;;14.60;3.75;;;10.20;99.90;;;;;;5072565;28;20063;-60
2023/12/28 04:42:29;;;;;;;13.63;2.85;;;10.50;99.90;;;;;;5071419;28;20036;-60
2023/12/28 04:44:55;;;;;;;10.82;2.95;;;9.30;99.90;;;;;;5072082;28;20037;-61
2023/12/28 04:47:20;;;;;;;14.68;3.33;;;9.50;99.90;;;;;;5072412;28;20041;-61
2023/12/28 04:49:46;;;;;;;17.85;3.50;;;10.60;99.90;;;;;;5071988;28;20147;-59
2023/12/28 04:52:12;;;;;;;10.35;2.92;;;9.20;99.90;;;;;;5072269;28;20056;-60
2023/12/28 04:54:40;;;;;;;10.82;2.67;;;10.60;99.90;;;;;;5072160;28;20047;-61
2023/12/28 04:57:08;;;;;;;13.63;2.58;;;9.10;99.90;;;;;;5072247;28;20086;-61
2023/12/28 04:59:41;;;;;;;12.52;3.40;;;10.10;99.90;;;;;;5072122;28;20071;-60
2023/12/28 05:02:07;;;;;;;15.43;2.97;;;9.80;99.90;;;;;;5071815;28;20176;-60
2023/12/28 05:04:36;;;;;;;12.90;3.20;;;9.20;99.90;;;;;;5072055;28;20041;-61
2023/12/28 05:07:02;;;;;;;13.57;2.78;;;10.50;99.90;;;;;;5072074;28;20064;-61
2023/12/28 05:09:27;;;;;;;15.90;3.00;;;9.20;99.90;;;;;;5071507;28;20386;-61
2023/12/28 05:11:53;;;;;;;14.63;3.28;;;9.90;99.90;;;;;;5071902;28;20175;-61
2023/12/28 05:14:18;;;;;;;22.00;4.05;;;10.10;99.90;;;;;;5072075;28;20032;-60
2023/12/28 05:16:44;;;;;;;16.38;3.05;;;10.30;99.90;;;;;;5072240;28;20036;-61
2023/12/28 05:19:10;;;;;;;18.15;2.85;;;10.50;99.90;;;;;;5070975;28;20075;-60
2023/12/28 05:21:35;;;;;;;17.25;2.60;;;9.40;99.90;;;;;;5071754;28;20488;-60
2023/12/28 05:24:01;;;;;;;18.23;3.00;;;10.50;99.90;;;;;;5070572;28;20043;-60
2023/12/28 05:26:27;;;;;;;12.70;3.20;;;9.50;99.90;;;;;;5071821;28;20461;-60
2023/12/28 05:28:52;;;;;;;19.88;3.03;;;9.40;99.90;;;;;;5071919;28;20040;-60
2023/12/28 05:31:18;;;;;;;16.50;2.63;;;10.60;99.90;;;;;;5070948;28;20071;-60
2023/12/28 05:33:44;;;;;;;14.75;3.58;;;10.60;99.90;;;;;;5071922;28;20048;-60
2023/12/28 05:36:09;;;;;;;16.40;2.33;;;10.70;99.90;;;;;;5070700;28;20112;-61
2023/12/28 05:38:35;;;;;;;20.25;3.60;;;9.40;99.90;;;;;;5071659;28;20484;-60
2023/12/28 05:41:01;;;;;;;16.42;2.80;;;9.70;99.90;;;;;;5071796;28;20041;-60
2023/12/28 05:43:26;;;;;;;15.63;3.00;;;10.60;99.90;;;;;;5071657;28;20063;-60
2023/12/28 05:45:52;;;;;;;12.68;2.42;;;9.50;99.90;;;;;;5071485;28;20052;-60
2023/12/28 05:48:18;;;;;;;16.85;4.10;;;9.60;99.90;;;;;;5071372;28;20094;-60
2023/12/28 05:50:43;;;;;;;15.25;3.08;;;9.60;99.90;;;;;;5071911;28;20046;-60
2023/12/28 05:53:13;;;;;;;15.93;2.70;;;9.40;99.90;;;;;;5073144;28;20033;-60
2023/12/28 05:55:43;;;;;;;13.82;2.90;;;9.90;99.90;;;;;;5075455;28;20104;-60
2023/12/28 05:58:12;;;;;;;17.58;2.60;;;9.40;99.90;;;;;;5075413;28;20473;-60
2023/12/28 06:00:38;;;;;;;15.55;3.15;;;10.60;99.90;;;;;;5075492;28;20131;-60
2023/12/28 06:03:05;;;;;;;18.05;4.22;;;9.40;99.90;;;;;;5074741;28;20388;-60
2023/12/28 06:05:31;;;;;;;15.65;3.10;;;10.40;99.90;;;;;;5074783;28;20040;-60
2023/12/28 06:07:56;;;;;;;18.52;3.75;;;9.20;99.90;;;;;;5074381;28;20119;-60
2023/12/28 06:10:22;;;;;;;18.90;3.65;;;9.30;99.90;;;;;;5074357;28;20132;-60
2023/12/28 06:12:48;;;;;;;17.33;2.42;;;9.60;99.90;;;;;;5073006;28;20055;-60
2023/12/28 06:15:13;;;;;;;15.45;3.30;;;9.80;99.90;;;;;;5074316;28;20036;-60
2023/12/28 06:17:39;;;;;;;19.40;3.00;;;10.50;99.90;;;;;;5074470;28;20032;-60
2023/12/28 06:20:06;;;;;;;13.88;3.03;;;10.50;99.90;;;;;;5074180;28;20583;-60
2023/12/28 06:22:31;;;;;;;14.25;2.50;;;9.40;99.90;;;;;;5074122;28;20072;-60
2023/12/28 06:24:57;;;;;;;14.70;2.92;;;10.30;99.90;;;;;;5073980;28;20436;-60
2023/12/28 06:27:26;;;;;;;14.00;3.92;;;9.80;99.90;;;;;;5074001;28;20041;-60
2023/12/28 06:29:51;;;;;;;18.95;2.95;;;9.50;99.90;;;;;;5074225;28;20047;-60
2023/12/28 06:32:17;;;;;;;19.17;3.38;;;10.60;99.90;;;;;;5072610;28;20036;-60
2023/12/28 06:34:43;;;;;;;13.45;2.58;;;10.60;99.90;;;;;;5073070;28;20048;-60
2023/12/28 06:37:08;;;;;;;11.70;2.42;;;10.20;99.90;;;;;;5073807;28;20041;-61
2023/12/28 06:39:34;;;;;;;22.88;3.33;;;10.30;99.90;;;;;;5073965;28;20051;-60
2023/12/28 06:41:59;;;;;;;23.35;2.70;;;9.70;99.90;;;;;;5074075;28;20044;-60
2023/12/28 06:44:25;;;;;;;19.60;4.07;;;10.60;99.90;;;;;;5073876;28;20045;-60
2023/12/28 06:46:51;;;;;;;17.55;3.25;;;10.60;99.90;;;;;;5073914;28;20044;-60
2023/12/28 06:49:16;;;;;;;22.33;2.97;;;10.60;99.90;;;;;;5073412;28;20061;-60
2023/12/28 06:51:45;;;;;;;16.52;2.88;;;10.50;99.90;;;;;;5066356;28;20059;-60
2023/12/28 06:54:11;;;;;;;20.63;4.38;;;10.60;99.90;;;;;;5062917;28;20045;-60
2023/12/28 06:56:36;;;;;;;13.80;3.33;;;10.00;99.90;;;;;;5054982;28;20110;-60
2023/12/28 06:59:02;;;;;;;15.55;3.47;;;10.70;99.90;;;;;;5067548;28;20435;-60
2023/12/28 07:01:28;;;;;;;18.58;4.38;;;9.80;99.90;;;;;;5073531;28;20032;-60
2023/12/28 07:03:54;;;;;;;21.13;4.03;;;9.90;99.90;;;;;;5072915;28;20048;-60
2023/12/28 07:06:19;;;;;;;22.30;5.05;;;9.80;99.90;;;;;;5073228;28;20413;-61
2023/12/28 07:08:45;;;;;;;28.80;4.55;;;10.50;99.90;;;;;;5071843;28;20105;-60
2023/12/28 07:11:11;;;;;;;16.42;2.97;;;10.20;99.90;;;;;;5073311;28;20493;-60
2023/12/28 07:13:37;;;;;;;17.45;3.13;;;9.80;99.90;;;;;;5073442;28;20105;-60
2023/12/28 07:16:03;;;;;;;24.45;3.15;;;9.90;99.90;;;;;;5073138;28;20079;-60
2023/12/28 07:18:29;;;;;;;21.20;5.22;;;10.50;99.90;;;;;;5071970;28;20396;-60
2023/12/28 07:20:55;;;;;;;20.25;5.65;;;10.60;99.90;;;;;;5073237;28;20048;-60
2023/12/28 07:23:20;;;;;;;20.08;3.38;;;10.00;99.90;;;;;;5072281;28;20471;-60
2023/12/28 07:25:46;;;;;;;16.60;2.70;;;10.70;99.90;;;;;;5072329;28;20507;-61
2023/12/28 07:28:12;;;;;;;20.13;3.40;;;9.90;99.90;;;;;;5072365;28;20044;-59
2023/12/28 07:30:38;;;;;;;23.08;4.28;;;10.70;99.90;;;;;;5072739;28;20081;-60
2023/12/28 07:33:04;;;;;;;16.52;2.83;;;10.10;99.90;;;;;;5072343;28;20044;-60
2023/12/28 07:35:29;;;;;;;29.95;5.07;;;9.90;99.90;;;;;;5072547;28;20051;-60
2023/12/28 07:37:55;;;;;;;16.77;2.85;;;10.70;99.90;;;;;;5072737;28;20041;-66
2023/12/28 07:40:21;;;;;;;25.70;5.25;;;9.80;99.90;;;;;;5058764;28;20385;-61
2023/12/28 07:42:46;;;;;;;19.35;3.28;;;9.90;99.90;;;;;;5072768;28;20039;-61
2023/12/28 07:45:12;;;;;;;20.88;2.80;;;10.00;99.90;;;;;;5072716;28;20068;-61
2023/12/28 07:47:38;;;;;;;19.00;3.35;;;10.40;99.90;;;;;;5071211;28;20041;-61
2023/12/28 07:50:04;;;;;;;17.45;2.90;;;10.00;99.90;;;;;;5072388;28;20056;-61
2023/12/28 07:52:30;;;;;;;16.95;2.45;;;10.30;99.90;;;;;;5072652;28;20063;-61
2023/12/28 07:54:55;;;;;;;16.85;3.45;;;10.00;99.90;;;;;;5071384;28;20389;-62
2023/12/28 07:57:21;;;;;;;21.52;6.60;;;10.70;99.90;;;;;;5072389;28;20449;-61
2023/12/28 07:59:47;;;;;;;19.67;3.80;;;10.50;99.90;;;;;;5072488;28;20040;-61
2023/12/28 08:02:13;;;;;;;27.10;4.20;;;9.90;99.90;;;;;;5072382;28;20050;-61
2023/12/28 08:04:38;;;;;;;25.27;3.97;;;9.80;99.90;;;;;;5071979;28;20036;-61
2023/12/28 08:07:04;;;;;;;14.75;3.03;;;10.70;99.90;;;;;;5072153;28;20544;-61
2023/12/28 08:09:30;;;;;;;31.10;4.00;;;10.40;99.90;;;;;;5072287;28;20504;-61
2023/12/28 08:11:56;;;;;;;20.63;4.00;;;9.90;99.90;;;;;;5072287;28;20040;-61
2023/12/28 08:14:22;;;;;;;20.20;3.78;;;10.20;99.90;;;;;;5072070;28;20040;-61
2023/12/28 08:16:47;;;;;;;25.08;3.47;;;10.70;99.90;;;;;;5070498;28;20037;-61
2023/12/28 08:19:13;;;;;;;27.92;3.97;;;10.70;99.90;;;;;;5071693;28;20044;-61
2023/12/28 08:21:41;;;;;;;28.63;4.95;;;9.90;99.90;;;;;;5071774;28;20115;-61
2023/12/28 08:24:07;;;;;;;24.17;4.05;;;10.80;99.90;;;;;;5071624;28;20044;-61
2023/12/28 08:26:33;;;;;;;21.40;4.15;;;10.80;99.90;;;;;;5071991;28;20430;-61
2023/12/28 08:28:59;;;;;;;23.20;4.63;;;10.00;99.90;;;;;;5071675;28;20079;-61
2023/12/28 08:31:24;;;;;;;27.48;4.28;;;10.30;99.90;;;;;;5071842;28;20064;-61
2023/12/28 08:33:50;;;;;;;20.45;3.78;;;10.70;99.90;;;;;;5071682;28;20079;-60
2023/12/28 08:36:17;;;;;;;24.48;4.75;;;10.00;99.90;;;;;;5071127;28;20032;-61
2023/12/28 08:38:43;;;;;;;22.08;3.53;;;10.40;99.90;;;;;;5070876;28;20101;-61
2023/12/28 08:41:21;;;;;;;20.63;3.50;;;10.80;99.90;;;;;;5071585;28;20040;-61
2023/12/28 08:43:47;;;;;;;30.60;5.68;;;10.80;99.90;;;;;;5070275;28;20120;-61
2023/12/28 08:46:14;;;;;;;22.20;3.05;;;10.60;99.90;;;;;;5070991;28;20044;-61
2023/12/28 08:48:40;;;;;;;30.70;5.75;;;9.90;99.90;;;;;;5071165;28;20602;-61
2023/12/28 08:51:06;;;;;;;28.52;4.25;;;10.30;99.90;;;;;;5070030;28;20083;-61
2023/12/28 08:53:32;;;;;;;26.55;3.22;;;10.40;99.90;;;;;;5071203;28;20126;-61
2023/12/28 08:55:58;;;;;;;22.65;4.00;;;10.20;99.90;;;;;;5071270;28;20377;-60
2023/12/28 08:58:23;;;;;;;20.25;3.75;;;10.50;99.90;;;;;;5072106;28;20094;-61
2023/12/28 09:00:50;;;;;;;23.55;4.32;;;10.60;99.90;;;;;;5072111;28;20044;-61
2023/12/28 09:03:16;;;;;;;27.33;3.83;;;10.00;99.90;;;;;;5072170;28;20121;-61
2023/12/28 09:05:41;;;;;;;33.25;4.78;;;10.10;99.90;;;;;;5072177;28;20095;-61
2023/12/28 09:08:07;;;;;;;25.52;4.20;;;10.20;99.90;;;;;;5071980;28;20037;-62
2023/12/28 09:10:33;;;;;;;24.25;3.92;;;10.10;99.90;;;;;;5072042;28;20150;-62
2023/12/28 09:12:59;;;;;;;20.60;4.45;;;10.40;99.90;;;;;;5067210;28;20119;-61
2023/12/28 09:15:24;;;;;;;28.77;4.70;;;10.60;99.90;;;;;;5057600;28;20040;-62
2023/12/28 09:17:50;;;;;;;21.08;3.38;;;10.40;99.90;;;;;;5050556;28;20091;-61
2023/12/28 09:20:16;;;;;;;26.13;4.50;;;11.00;99.90;;;;;;5051671;28;20040;-62
2023/12/28 09:22:42;;;;;;;30.35;4.25;;;10.80;99.90;;;;;;5050805;28;20051;-62
2023/12/28 09:25:08;;;;;;;24.90;4.47;;;10.80;99.90;;;;;;5050890;28;20469;-67
2023/12/28 09:27:33;;;;;;;24.73;4.78;;;10.60;99.90;;;;;;5052670;28;20473;-61
2023/12/28 09:29:59;;;;;;;22.92;3.40;;;10.90;99.90;;;;;;5055723;28;20052;-60
2023/12/28 09:32:25;;;;;;;29.35;5.10;;;10.20;99.90;;;;;;5055809;28;20049;-61
2023/12/28 09:34:50;;;;;;;25.48;4.22;;;10.90;99.90;;;;;;5055568;28;20037;-61
2023/12/28 09:37:16;;;;;;;21.92;4.00;;;11.00;99.90;;;;;;5055786;28;20370;-61
2023/12/28 09:39:42;;;;;;;24.45;3.35;;;10.40;99.90;;;;;;5054866;28;20048;-60
2023/12/28 09:42:28;;;;;;;23.45;4.18;;;10.20;99.90;;;;;;5054447;28;20037;-60
2023/12/28 09:44:54;;;;;;;25.75;4.47;;;10.50;99.90;;;;;;5055633;28;20037;-60
2023/12/28 09:47:19;;;;;;;21.20;3.13;;;11.00;99.90;;;;;;5055265;28;20047;-60
2023/12/28 09:49:46;;;;;;;21.55;4.45;;;10.20;99.90;;;;;;5055298;28;20520;-60
2023/12/28 09:52:12;;;;;;;25.70;3.45;;;10.90;99.90;;;;;;5055262;28;20511;-61
2023/12/28 09:54:38;;;;;;;25.17;3.92;;;11.00;99.90;;;;;;5055442;28;20108;-60
2023/12/28 09:57:05;;;;;;;26.38;5.38;;;10.50;99.90;;;;;;5055452;28;20064;-61
2023/12/28 09:59:32;;;;;;;17.02;3.70;;;10.80;99.90;;;;;;5054237;28;20060;-59
2023/12/28 10:02:01;;;;;;;28.38;5.63;;;10.30;99.90;;;;;;5055531;28;20049;-61
2023/12/28 10:04:29;;;;;;;24.27;4.57;;;10.50;99.90;;;;;;5055330;28;20037;-61
2023/12/28 10:06:54;;;;;;;20.88;3.70;;;10.90;99.90;;;;;;5055290;28;20044;-61
2023/12/28 10:09:21;;;;;;;21.30;3.58;;;10.40;99.90;;;;;;5055297;28;20123;-60
2023/12/28 10:11:47;;;;;;;21.15;3.67;;;11.10;99.90;;;;;;5055109;28;20045;-61
2023/12/28 10:14:13;;;;;;;30.90;4.53;;;10.60;99.90;;;;;;5055235;28;20361;-62
2023/12/28 10:16:42;;;;;;;22.65;4.13;;;10.40;99.90;;;;;;5055381;28;20076;-60
2023/12/28 10:19:08;;;;;;;27.02;4.65;;;10.80;99.90;;;;;;5055133;28;20037;-61
2023/12/28 10:21:34;;;;;;;26.23;4.38;;;10.40;99.90;;;;;;5055034;28;20171;-61
2023/12/28 10:24:00;;;;;;;19.90;3.10;;;10.60;99.90;;;;;;5054873;28;20059;-61
2023/12/28 10:26:27;;;;;;;22.92;4.47;;;10.50;99.90;;;;;;5054827;28;20045;-61
2023/12/28 10:29:01;;;;;;;22.52;3.30;;;10.90;99.90;;;;;;5054440;28;20493;-61
2023/12/28 10:31:26;;;;;;;24.60;4.88;;;10.40;99.90;;;;;;5054819;28;20048;-61
2023/12/28 10:33:52;;;;;;;18.58;4.18;;;10.40;99.90;;;;;;5054810;28;20041;-61
2023/12/28 10:36:21;;;;;;;21.73;4.43;;;10.30;99.90;;;;;;5053613;28;20503;-61
2023/12/28 10:38:49;;;;;;;16.10;3.88;;;10.30;99.90;;;;;;5054872;28;20448;-61
2023/12/28 10:41:15;;;;;;;21.58;4.47;;;11.00;99.90;;;;;;5054550;28;20048;-61
2023/12/28 10:44:13;;;;;;;20.77;3.17;;;10.90;99.90;;;;;;5054572;28;20044;-61
2023/12/28 10:46:43;;;;;;;18.85;2.80;;;11.10;99.90;;;;;;5060082;28;20045;-61
2023/12/28 10:49:16;;;;;;;24.27;3.55;;;10.60;99.90;;;;;;5064258;28;20570;-61
2023/12/28 10:51:43;;;;;;;26.75;3.33;;;10.30;99.90;;;;;;5055824;28;20033;-62
2023/12/28 10:54:12;;;;;;;19.88;3.38;;;11.00;99.90;;;;;;5054727;28;20041;-61
2023/12/28 10:56:45;;;;;;;18.67;3.35;;;11.10;99.90;;;;;;5054482;28;20044;-61
2023/12/28 10:59:41;;;;;;;20.63;3.70;;;10.80;99.90;;;;;;5054219;28;20110;-61
2023/12/28 11:02:08;;;;;;;22.67;4.45;;;10.50;99.90;;;;;;5054083;28;20037;-61
2023/12/28 11:04:43;;;;;;;19.38;3.40;;;10.80;99.90;;;;;;5054231;28;20048;-61
2023/12/28 11:07:16;;;;;;;17.73;3.05;;;11.00;99.90;;;;;;5054469;28;20056;-60
2023/12/28 11:09:42;;;;;;;19.38;2.75;;;11.10;99.90;;;;;;5054101;28;20048;-61
2023/12/28 11:12:11;;;;;;;21.55;3.75;;;10.40;99.90;;;;;;5054139;28;20069;-61
2023/12/28 11:14:41;;;;;;;19.42;4.03;;;10.70;99.90;;;;;;5068031;28;20037;-62
2023/12/28 11:17:09;;;;;;;19.77;3.30;;;11.10;99.90;;;;;;5074211;28;20060;-61
2023/12/28 11:19:35;;;;;;;22.05;3.05;;;10.40;99.90;;;;;;5074013;28;20040;-62
2023/12/28 11:22:03;;;;;;;22.13;3.47;;;10.60;99.90;;;;;;5074125;28;20182;-62
2023/12/28 11:24:30;;;;;;;24.63;4.28;;;10.40;99.90;;;;;;5073800;28;20071;-62
2023/12/28 11:26:57;;;;;;;17.95;3.28;;;11.10;99.90;;;;;;5073780;28;20059;-61
2023/12/28 11:29:25;;;;;;;20.55;3.33;;;10.40;99.90;;;;;;5073743;28;20045;-61
2023/12/28 11:31:52;;;;;;;24.98;4.53;;;10.50;99.90;;;;;;5073864;28;20142;-61
2023/12/28 11:34:18;;;;;;;21.58;4.25;;;10.60;99.90;;;;;;5072620;28;20044;-61
2023/12/28 11:36:49;;;;;;;19.90;3.53;;;10.40;99.90;;;;;;5073798;28;20040;-61
2023/12/28 11:39:26;;;;;;;17.90;3.60;;;10.50;99.90;;;;;;5073598;28;20084;-62
2023/12/28 11:42:03;;;;;;;22.35;3.67;;;11.10;99.90;;;;;;5073539;28;20052;-61
2023/12/28 11:44:29;;;;;;;24.40;3.60;;;10.40;99.90;;;;;;5073575;28;20054;-61
2023/12/28 11:46:56;;;;;;;26.13;3.67;;;11.10;99.90;;;;;;5073498;28;20146;-62
2023/12/28 11:49:29;;;;;;;19.63;3.03;;;10.60;99.90;;;;;;5073068;28;20056;-62
2023/12/28 11:51:59;;;;;;;21.60;4.10;;;10.40;99.90;;;;;;5073011;28;20059;-62
2023/12/28 11:54:26;;;;;;;21.23;3.95;;;10.50;99.90;;;;;;5073031;28;20481;-61
2023/12/28 11:56:52;;;;;;;19.08;3.05;;;11.00;99.90;;;;;;5073415;28;20126;-61
2023/12/28 11:59:19;;;;;;;22.50;3.63;;;11.00;99.90;;;;;;5073330;28;20036;-61
2023/12/28 12:01:50;;;;;;;20.35;3.80;;;11.00;99.90;;;;;;5072115;28;20052;-61
2023/12/28 12:04:15;;;;;;;18.58;3.30;;;10.80;99.90;;;;;;5073031;28;20044;-61
2023/12/28 12:06:41;;;;;;;20.88;3.60;;;10.20;99.90;;;;;;5073047;28;20040;-61
2023/12/28 12:09:07;;;;;;;26.58;4.53;;;10.70;99.90;;;;;;5073120;28;20124;-61
2023/12/28 12:11:32;;;;;;;20.98;3.40;;;10.80;99.90;;;;;;5072821;28;20048;-61
2023/12/28 12:13:58;;;;;;;20.02;3.60;;;11.00;99.90;;;;;;5072954;28;20029;-62
2023/12/28 12:16:24;;;;;;;18.35;3.25;;;10.90;99.90;;;;;;5072441;28;20056;-60
2023/12/28 12:18:50;;;;;;;22.85;4.88;;;10.20;99.90;;;;;;5072598;28;20125;-62
2023/12/28 12:21:16;;;;;;;25.08;4.10;;;10.70;99.90;;;;;;5072671;28;20076;-62
2023/12/28 12:23:42;;;;;;;24.02;3.67;;;10.50;99.90;;;;;;5072209;28;20040;-62
2023/12/28 12:26:08;;;;;;;24.73;4.72;;;10.10;99.90;;;;;;5072783;28;20048;-62
2023/12/28 12:28:34;;;;;;;20.80;4.30;;;10.60;99.90;;;;;;5072665;28;20045;-62
2023/12/28 12:31:04;;;;;;;21.17;4.32;;;11.00;99.90;;;;;;5072489;28;20094;-61
2023/12/28 12:33:31;;;;;;;22.77;3.97;;;10.80;99.90;;;;;;5071222;28;20041;-61
2023/12/28 12:35:57;;;;;;;23.63;4.43;;;10.30;99.90;;;;;;5072209;28;20046;-61
2023/12/28 12:38:23;;;;;;;28.63;4.05;;;10.30;99.90;;;;;;5072344;28;20395;-61